Time;durP1;ratioP1;P1;durP2;ratioP2;P2;SDS_P1;SDS_P2;PMS_P1;PMS_P2;Temp;Humidity;BMP_temperature;BMP_pressure;BME280_temperature;BME280_humidity;BME280_pressure;Samples;Min_cycle;Max_cycle;Signal;HPM_P1;HPM_P2
2022/01/21 06:16:06;;;;;;;13.60;7.85;;;;;;;;;;5488232;23;20392;-59
2022/01/21 06:18:32;;;;;;;16.65;7.93;;;;;;;;;;4972916;28;20046;-60
2022/01/21 06:20:58;;;;;;;14.75;7.82;;;;;;;;;;4972463;28;20027;-60
2022/01/21 06:23:24;;;;;;;14.35;7.40;;;;;;;;;;4973012;28;20027;-60
2022/01/21 06:25:50;;;;;;;13.43;6.93;;;;;;;;;;4973414;28;20082;-61
2022/01/21 06:28:16;;;;;;;18.35;7.90;;;;;;;;;;4973017;28;20038;-61
2022/01/21 06:30:42;;;;;;;13.27;7.25;;;;;;;;;;4972694;28;20483;-61
2022/01/21 06:33:09;;;;;;;19.17;8.38;;;;;;;;;;4972594;28;20030;-61
2022/01/21 06:35:35;;;;;;;15.40;9.10;;;;;;;;;;4972592;28;20027;-61
2022/01/21 06:38:01;;;;;;;21.73;10.50;;;;;;;;;;4972733;28;20387;-60
2022/01/21 06:40:27;;;;;;;20.85;10.45;;;;;;;;;;4972407;28;20027;-60
2022/01/21 06:43:00;;;;;;;19.30;9.85;;;;;;;;;;4972655;28;20031;-62
2022/01/21 06:45:26;;;;;;;18.73;9.75;;;;;;;;;;4972649;28;20110;-60
2022/01/21 06:47:52;;;;;;;23.20;10.73;;;;;;;;;;4972614;28;20035;-60
2022/01/21 06:50:18;;;;;;;20.20;10.40;;;;;;;;;;4972062;28;20034;-60
2022/01/21 06:52:44;;;;;;;22.65;11.30;;;;;;;;;;4972181;28;20129;-59
2022/01/21 06:55:10;;;;;;;24.70;11.60;;;;;;;;;;4972416;28;20041;-59
2022/01/21 06:57:39;;;;;;;26.70;11.50;;;;;;;;;;4960136;28;20037;-62
2022/01/21 07:00:06;;;;;;;20.80;10.30;;;;;;;;;;4963885;28;20459;-62
2022/01/21 07:02:33;;;;;;;19.67;10.75;;;;;;;;;;4968024;28;20059;-62
2022/01/21 07:04:59;;;;;;;20.38;10.88;;;;;;;;;;4937894;29;20039;-61
2022/01/21 07:07:26;;;;;;;23.73;10.98;;;;;;;;;;4955157;29;20058;-60
2022/01/21 07:09:55;;;;;;;18.13;9.52;;;;;;;;;;4957410;29;20031;-63
2022/01/21 07:12:22;;;;;;;19.55;9.45;;;;;;;;;;4953438;29;20023;-61
2022/01/21 07:14:50;;;;;;;22.30;10.38;;;;;;;;;;4941113;29;20035;-60
2022/01/21 07:17:16;;;;;;;22.48;9.75;;;;;;;;;;4936360;29;20043;-61
2022/01/21 07:19:42;;;;;;;29.35;12.82;;;;;;;;;;4957884;29;20043;-60
2022/01/21 07:22:08;;;;;;;26.08;12.02;;;;;;;;;;4937219;29;20122;-62
2022/01/21 07:24:34;;;;;;;21.35;11.30;;;;;;;;;;4937610;29;20504;-60
2022/01/21 07:27:01;;;;;;;22.73;10.85;;;;;;;;;;4954145;29;20039;-64
2022/01/21 07:29:28;;;;;;;26.00;12.68;;;;;;;;;;4956620;29;20128;-61
2022/01/21 07:31:54;;;;;;;26.63;12.10;;;;;;;;;;4952447;29;20035;-61
2022/01/21 07:34:22;;;;;;;23.25;11.88;;;;;;;;;;4955930;29;20039;-60
2022/01/21 07:36:48;;;;;;;20.13;10.15;;;;;;;;;;4955262;29;20583;-61
2022/01/21 07:39:14;;;;;;;19.63;10.00;;;;;;;;;;4952455;29;20035;-62
2022/01/21 07:41:40;;;;;;;20.60;10.00;;;;;;;;;;4952598;29;20031;-60
2022/01/21 07:44:06;;;;;;;16.42;8.65;;;;;;;;;;4952676;29;20062;-61
2022/01/21 07:46:32;;;;;;;18.80;9.68;;;;;;;;;;4953923;28;20039;-61
2022/01/21 07:48:59;;;;;;;16.33;9.02;;;;;;;;;;4958428;29;20042;-60
2022/01/21 07:51:26;;;;;;;16.77;9.20;;;;;;;;;;4952530;29;20023;-64
2022/01/21 07:53:52;;;;;;;19.00;8.43;;;;;;;;;;4955946;28;20123;-62
2022/01/21 07:56:18;;;;;;;17.45;7.60;;;;;;;;;;4967429;28;20518;-61
2022/01/21 07:58:44;;;;;;;17.73;8.57;;;;;;;;;;4954227;29;20517;-61
2022/01/21 08:01:10;;;;;;;17.70;8.18;;;;;;;;;;4953926;28;20118;-62
2022/01/21 08:03:37;;;;;;;16.88;7.50;;;;;;;;;;4948271;28;20589;-62
2022/01/21 08:06:04;;;;;;;17.13;7.70;;;;;;;;;;4967719;28;20403;-62
2022/01/21 08:08:30;;;;;;;17.83;8.43;;;;;;;;;;4966001;28;20027;-62
2022/01/21 08:10:57;;;;;;;17.77;8.45;;;;;;;;;;4964485;28;20378;-61
2022/01/21 08:13:23;;;;;;;15.57;8.18;;;;;;;;;;4962333;28;20528;-63
2022/01/21 08:15:49;;;;;;;13.80;7.32;;;;;;;;;;4973616;28;20038;-63
2022/01/21 08:18:15;;;;;;;15.10;7.80;;;;;;;;;;4957894;28;20083;-64
2022/01/21 08:20:44;;;;;;;24.83;11.48;;;;;;;;;;4956973;29;20098;-63
2022/01/21 08:23:11;;;;;;;17.10;8.52;;;;;;;;;;4946344;29;20032;-64
2022/01/21 08:25:38;;;;;;;19.08;8.52;;;;;;;;;;4945341;29;20051;-62
2022/01/21 08:28:05;;;;;;;18.80;8.50;;;;;;;;;;4946643;29;20027;-62
2022/01/21 08:30:32;;;;;;;15.60;7.93;;;;;;;;;;4932101;29;20376;-64
2022/01/21 08:32:59;;;;;;;13.05;7.03;;;;;;;;;;4929918;29;20035;-63
2022/01/21 08:35:25;;;;;;;14.02;7.55;;;;;;;;;;4936141;29;20038;-61
2022/01/21 08:37:52;;;;;;;14.68;7.38;;;;;;;;;;4956126;29;20023;-64
2022/01/21 08:40:19;;;;;;;17.23;8.20;;;;;;;;;;4929639;29;20034;-63
2022/01/21 08:42:45;;;;;;;12.77;7.15;;;;;;;;;;4949674;29;20023;-63
2022/01/21 08:45:11;;;;;;;15.98;7.60;;;;;;;;;;4940997;29;20058;-63
2022/01/21 08:47:41;;;;;;;14.27;7.82;;;;;;;;;;4945923;29;20051;-64
2022/01/21 08:50:10;;;;;;;17.05;8.25;;;;;;;;;;4952755;29;20165;-65
2022/01/21 08:52:37;;;;;;;23.67;11.70;;;;;;;;;;4948900;28;20032;-63
2022/01/21 08:55:07;;;;;;;24.77;11.63;;;;;;;;;;4944013;29;20034;-63
2022/01/21 08:57:34;;;;;;;31.38;13.52;;;;;;;;;;4941888;29;20020;-63
2022/01/21 09:00:01;;;;;;;22.70;12.05;;;;;;;;;;4939805;29;20058;-63
2022/01/21 09:02:29;;;;;;;21.15;9.70;;;;;;;;;;4941873;29;20030;-64
2022/01/21 09:04:56;;;;;;;23.48;11.45;;;;;;;;;;4922464;29;20391;-63
2022/01/21 09:07:22;;;;;;;20.83;10.93;;;;;;;;;;4941391;29;20036;-62
2022/01/21 09:09:49;;;;;;;18.98;10.23;;;;;;;;;;4944053;29;20020;-63
2022/01/21 09:12:15;;;;;;;19.20;8.85;;;;;;;;;;4941382;29;20156;-62
2022/01/21 09:14:41;;;;;;;18.73;8.85;;;;;;;;;;4943794;29;20037;-62
2022/01/21 09:17:07;;;;;;;16.70;7.85;;;;;;;;;;4941611;28;20047;-62
2022/01/21 09:19:36;;;;;;;13.57;6.75;;;;;;;;;;4944861;29;20023;-63
2022/01/21 09:22:02;;;;;;;17.15;7.65;;;;;;;;;;4926020;29;20089;-62
2022/01/21 09:24:33;;;;;;;16.42;8.35;;;;;;;;;;4943387;29;20027;-63
2022/01/21 09:26:59;;;;;;;19.55;8.85;;;;;;;;;;4945800;29;20026;-63
2022/01/21 09:29:25;;;;;;;15.85;7.60;;;;;;;;;;4943099;29;20027;-63
2022/01/21 09:31:51;;;;;;;11.98;6.07;;;;;;;;;;4944709;29;20095;-61
2022/01/21 09:34:19;;;;;;;17.80;6.03;;;;;;;;;;4940699;29;20044;-63
2022/01/21 09:36:45;;;;;;;12.98;6.50;;;;;;;;;;4940409;29;20471;-62
2022/01/21 09:39:12;;;;;;;12.63;6.40;;;;;;;;;;4941849;29;20150;-62
2022/01/21 09:41:42;;;;;;;10.43;5.45;;;;;;;;;;4941301;29;20027;-62
2022/01/21 09:44:11;;;;;;;11.85;5.03;;;;;;;;;;4943286;29;20023;-61
2022/01/21 09:46:42;;;;;;;18.48;9.20;;;;;;;;;;4943914;29;20468;-62
2022/01/21 09:49:21;;;;;;;11.98;5.30;;;;;;;;;;4943864;29;20078;-62
2022/01/21 09:51:48;;;;;;;26.38;14.93;;;;;;;;;;4946653;28;20094;-63
2022/01/21 09:54:14;;;;;;;12.13;7.80;;;;;;;;;;4954025;29;20079;-62
2022/01/21 09:56:42;;;;;;;10.10;4.30;;;;;;;;;;4944912;29;20087;-61
2022/01/21 09:59:08;;;;;;;10.07;4.00;;;;;;;;;;4942976;29;20030;-60
2022/01/21 10:01:35;;;;;;;7.45;3.15;;;;;;;;;;4943956;29;20078;-63
2022/01/21 10:04:01;;;;;;;12.95;3.83;;;;;;;;;;4942712;29;20060;-63
2022/01/21 10:06:29;;;;;;;10.43;4.00;;;;;;;;;;4943047;29;20015;-62
2022/01/21 10:08:55;;;;;;;9.63;3.65;;;;;;;;;;4942474;29;20031;-62
2022/01/21 10:11:22;;;;;;;14.50;3.58;;;;;;;;;;4943251;29;20055;-63
2022/01/21 10:13:49;;;;;;;9.05;3.65;;;;;;;;;;4940776;29;20031;-62
2022/01/21 10:16:15;;;;;;;17.25;4.10;;;;;;;;;;4939671;28;20027;-62
2022/01/21 10:19:00;;;;;;;7.93;3.40;;;;;;;;;;4940753;29;20031;-62
2022/01/21 10:21:31;;;;;;;9.32;3.63;;;;;;;;;;4941096;28;20444;-63
2022/01/21 10:24:04;;;;;;;8.15;3.40;;;;;;;;;;4939775;29;20035;-62
2022/01/21 10:26:30;;;;;;;7.85;3.45;;;;;;;;;;4939397;29;20016;-62
2022/01/21 10:28:57;;;;;;;10.15;4.20;;;;;;;;;;4940826;29;20019;-62
2022/01/21 10:31:27;;;;;;;10.18;4.10;;;;;;;;;;4942689;29;20022;-62
2022/01/21 10:33:56;;;;;;;56.08;21.50;;;;;;;;;;4941714;29;20042;-61
2022/01/21 10:36:33;;;;;;;34.50;12.95;;;;;;;;;;4941610;29;20071;-62
2022/01/21 10:39:11;;;;;;;93.32;35.22;;;;;;;;;;4939978;29;20035;-62
2022/01/21 10:41:46;;;;;;;20.80;8.50;;;;;;;;;;4941287;29;20073;-62
2022/01/21 10:44:20;;;;;;;6.70;3.45;;;;;;;;;;4934795;29;20055;-62
2022/01/21 10:47:04;;;;;;;7.22;3.28;;;;;;;;;;4937689;29;20113;-62
2022/01/21 10:49:30;;;;;;;10.23;3.72;;;;;;;;;;4940773;29;20031;-62
2022/01/21 10:51:56;;;;;;;7.25;3.40;;;;;;;;;;4944300;28;20030;-62
2022/01/21 10:54:26;;;;;;;8.55;3.50;;;;;;;;;;4943955;29;20039;-62
2022/01/21 10:57:12;;;;;;;8.52;3.40;;;;;;;;;;4942547;29;20046;-61
2022/01/21 10:59:57;;;;;;;9.52;3.35;;;;;;;;;;4942669;29;20483;-62
2022/01/21 11:02:30;;;;;;;10.30;2.72;;;;;;;;;;4937932;28;20040;-62
2022/01/21 11:04:58;;;;;;;6.20;2.80;;;;;;;;;;4947852;29;20088;-61
2022/01/21 11:08:00;;;;;;;5.20;2.55;;;;;;;;;;4941792;29;20023;-62
2022/01/21 11:10:32;;;;;;;10.10;3.83;;;;;;;;;;4854974;29;20141;-61
2022/01/21 11:12:58;;;;;;;;;;;;;;;;;;4852794;29;20101;-62
2022/01/21 11:15:24;;;;;;;8.23;3.10;;;;;;;;;;4846896;29;20328;-62
2022/01/21 11:17:58;;;;;;;19.52;6.70;;;;;;;;;;4859345;29;20589;-62
2022/01/21 11:20:31;;;;;;;18.25;7.00;;;;;;;;;;4864755;29;20045;-62
2022/01/21 11:22:59;;;;;;;10.25;5.00;;;;;;;;;;4874574;29;20044;-62
2022/01/21 11:25:41;;;;;;;6.00;2.38;;;;;;;;;;4868062;29;20116;-63
2022/01/21 11:28:07;;;;;;;11.07;3.25;;;;;;;;;;4854575;29;20115;-62
2022/01/21 11:30:33;;;;;;;8.88;3.67;;;;;;;;;;4850226;29;20033;-61
2022/01/21 11:32:59;;;;;;;10.93;4.65;;;;;;;;;;4874561;29;20494;-64
2022/01/21 11:35:27;;;;;;;10.43;3.08;;;;;;;;;;4875005;29;20039;-62
2022/01/21 11:37:53;;;;;;;6.38;2.70;;;;;;;;;;4873248;29;20430;-62
2022/01/21 11:40:19;;;;;;;7.65;2.60;;;;;;;;;;4869103;29;20282;-61
2022/01/21 11:42:46;;;;;;;10.88;3.53;;;;;;;;;;4860090;29;20086;-62
2022/01/21 11:45:30;;;;;;;9.32;2.70;;;;;;;;;;4875081;29;20071;-62
2022/01/21 11:48:49;;;;;;;8.70;2.92;;;;;;;;;;4899116;29;20040;-61
2022/01/21 11:50:48;;;;;;;9.88;2.80;;;;;;;;;;4940515;28;20103;-61
2022/01/21 11:53:15;;;;;;;11.15;3.00;;;;;;;;;;4955986;29;20428;-62
2022/01/21 11:55:46;;;;;;;10.52;3.70;;;;;;;;;;4937752;29;20035;-61
2022/01/21 11:58:12;;;;;;;21.05;9.45;;;;;;;;;;4941944;29;20028;-61
2022/01/21 12:00:40;;;;;;;11.73;5.22;;;;;;;;;;4937195;29;20035;-61
2022/01/21 12:03:06;;;;;;;9.82;5.07;;;;;;;;;;4941703;29;20030;-62
2022/01/21 12:05:36;;;;;;;11.55;4.32;;;;;;;;;;4948489;29;20031;-62
2022/01/21 12:08:06;;;;;;;9.27;3.30;;;;;;;;;;4938856;29;20024;-62
2022/01/21 12:10:39;;;;;;;5.25;2.83;;;;;;;;;;4944210;28;20478;-61
2022/01/21 12:13:18;;;;;;;6.88;2.80;;;;;;;;;;4946149;29;20090;-61
2022/01/21 12:16:20;;;;;;;7.75;3.40;;;;;;;;;;4946104;28;20047;-61
2022/01/21 12:18:53;;;;;;;7.85;2.38;;;;;;;;;;4943989;29;20052;-62
2022/01/21 12:21:48;;;;;;;6.78;2.60;;;;;;;;;;4942656;28;20040;-62
2022/01/21 12:30:32;;;;;;;10.35;4.40;;;;;;;;;;4953163;29;20094;-63
2022/01/21 12:33:01;;;;;;;6.85;2.15;;;;;;;;;;4929649;29;20123;-66
2022/01/21 12:35:27;;;;;;;9.07;3.33;;;;;;;;;;4944440;29;20050;-65
2022/01/21 12:40:55;;;;;;;9.90;3.03;;;;;;;;;;4945325;29;20042;-66
2022/01/21 12:43:39;;;;;;;4.68;1.60;;;;;;;;;;4944144;29;20428;-63
2022/01/21 12:46:10;;;;;;;10.07;3.08;;;;;;;;;;4945086;28;20155;-66
2022/01/21 12:48:37;;;;;;;6.72;1.77;;;;;;;;;;4942774;28;20127;-66
2022/01/21 12:51:21;;;;;;;3.13;1.52;;;;;;;;;;4944736;29;20090;-67
2022/01/21 12:56:47;;;;;;;6.25;1.70;;;;;;;;;;4944593;29;20127;-66
2022/01/21 12:59:18;;;;;;;9.57;2.70;;;;;;;;;;4943503;29;20403;-65
2022/01/21 13:01:44;;;;;;;7.45;2.30;;;;;;;;;;4944267;29;20079;-66
2022/01/21 13:04:16;;;;;;;8.23;3.45;;;;;;;;;;4942399;29;20031;-66
2022/01/21 13:06:45;;;;;;;4.70;1.45;;;;;;;;;;4939880;29;20019;-66
2022/01/21 13:09:13;;;;;;;7.68;2.28;;;;;;;;;;4942657;29;20571;-64
2022/01/21 13:11:43;;;;;;;5.13;1.63;;;;;;;;;;4943471;29;20130;-65
2022/01/21 13:16:58;;;;;;;5.55;1.88;;;;;;;;;;4942176;28;20095;-62
2022/01/21 13:19:24;;;;;;;5.25;2.17;;;;;;;;;;4943997;29;20437;-66
2022/01/21 13:21:50;;;;;;;5.20;2.38;;;;;;;;;;4943398;29;20043;-64
2022/01/21 13:24:28;;;;;;;13.32;5.10;;;;;;;;;;4945001;29;20027;-65
2022/01/21 13:26:55;;;;;;;22.65;8.75;;;;;;;;;;4944802;29;20074;-64
2022/01/21 13:29:28;;;;;;;52.33;20.25;;;;;;;;;;4942254;29;20036;-63
2022/01/21 13:31:56;;;;;;;11.25;4.93;;;;;;;;;;4941228;29;20027;-63
2022/01/21 13:34:27;;;;;;;7.47;3.40;;;;;;;;;;4941495;29;20138;-62
2022/01/21 13:36:58;;;;;;;6.22;2.78;;;;;;;;;;4941641;29;20031;-61
2022/01/21 13:39:26;;;;;;;7.40;2.53;;;;;;;;;;4936869;29;20027;-63
2022/01/21 13:41:52;;;;;;;11.35;3.95;;;;;;;;;;4939353;29;20524;-63
2022/01/21 13:44:25;;;;;;;6.53;2.47;;;;;;;;;;4937390;29;20023;-64
2022/01/21 13:46:51;;;;;;;8.45;2.55;;;;;;;;;;4933376;29;20035;-63
2022/01/21 13:49:24;;;;;;;8.65;1.80;;;;;;;;;;4935991;29;20538;-64
2022/01/21 13:52:01;;;;;;;4.97;1.70;;;;;;;;;;4943665;29;20059;-63
2022/01/21 13:54:31;;;;;;;7.40;2.00;;;;;;;;;;4943090;29;20130;-64
2022/01/21 13:56:57;;;;;;;5.93;2.28;;;;;;;;;;4942393;29;20033;-63
2022/01/21 13:59:23;;;;;;;10.98;2.65;;;;;;;;;;4942761;28;20035;-65
2022/01/21 14:01:49;;;;;;;7.93;2.10;;;;;;;;;;4936792;29;20035;-63
2022/01/21 14:04:15;;;;;;;9.55;2.50;;;;;;;;;;4932945;29;20031;-64
2022/01/21 14:06:42;;;;;;;5.47;2.08;;;;;;;;;;4940058;29;20028;-64
2022/01/21 14:09:08;;;;;;;5.82;2.47;;;;;;;;;;4944538;29;20118;-64
2022/01/21 14:11:43;;;;;;;6.55;1.77;;;;;;;;;;4945670;29;20024;-64
2022/01/21 14:14:10;;;;;;;9.43;2.88;;;;;;;;;;4941912;29;20050;-64
2022/01/21 14:16:39;;;;;;;16.40;3.25;;;;;;;;;;4943412;29;20053;-63
2022/01/21 14:19:09;;;;;;;8.05;2.72;;;;;;;;;;4943487;29;20028;-63
2022/01/21 14:21:36;;;;;;;8.85;3.70;;;;;;;;;;4942382;29;20031;-63
2022/01/21 14:24:15;;;;;;;9.80;2.60;;;;;;;;;;4942428;29;20486;-64
2022/01/21 14:26:41;;;;;;;5.53;2.67;;;;;;;;;;4943163;29;20592;-63
2022/01/21 14:29:07;;;;;;;10.27;2.97;;;;;;;;;;4947566;29;20090;-62
2022/01/21 14:31:38;;;;;;;5.95;2.60;;;;;;;;;;4945634;29;20497;-63
2022/01/21 14:34:24;;;;;;;8.55;2.67;;;;;;;;;;4942146;29;20047;-63
2022/01/21 14:37:00;;;;;;;9.25;3.13;;;;;;;;;;4943034;29;20090;-63
2022/01/21 14:39:26;;;;;;;10.10;3.58;;;;;;;;;;4953477;29;20038;-62
2022/01/21 14:41:55;;;;;;;13.85;2.90;;;;;;;;;;4958769;29;20098;-63
2022/01/21 14:44:52;;;;;;;15.90;3.88;;;;;;;;;;4922040;29;20138;-62
2022/01/21 14:47:20;;;;;;;10.70;3.60;;;;;;;;;;4874194;29;20053;-65
2022/01/21 14:49:57;;;;;;;16.20;3.72;;;;;;;;;;4873819;29;20047;-61
2022/01/21 14:52:39;;;;;;;7.60;2.83;;;;;;;;;;4864334;29;20520;-63
2022/01/21 14:55:07;;;;;;;12.65;4.65;;;;;;;;;;4853612;29;20084;-63
2022/01/21 14:57:34;;;;;;;13.77;4.00;;;;;;;;;;4864388;29;20037;-63
2022/01/21 15:00:03;;;;;;;15.60;6.10;;;;;;;;;;4865844;29;20082;-63
2022/01/21 15:02:33;;;;;;;17.13;5.43;;;;;;;;;;4868831;29;20508;-62
2022/01/21 15:05:06;;;;;;;7.80;3.42;;;;;;;;;;4869370;29;20074;-64
2022/01/21 15:07:34;;;;;;;11.05;4.72;;;;;;;;;;4869747;29;20072;-63
2022/01/21 15:10:07;;;;;;;14.00;4.45;;;;;;;;;;4866401;29;20048;-63
2022/01/21 15:15:35;;;;;;;14.25;4.95;;;;;;;;;;4858150;29;20161;-63
2022/01/21 15:18:04;;;;;;;16.13;5.78;;;;;;;;;;4879323;29;20065;-64
2022/01/21 15:20:37;;;;;;;11.35;4.30;;;;;;;;;;4879010;29;20025;-64
2022/01/21 15:23:05;;;;;;;11.43;4.60;;;;;;;;;;4887074;29;20039;-63
2022/01/21 15:25:33;;;;;;;13.82;4.68;;;;;;;;;;4985203;28;20033;-63
2022/01/21 15:28:00;;;;;;;16.35;5.85;;;;;;;;;;4982897;28;20077;-65
2022/01/21 15:30:27;;;;;;;13.93;6.18;;;;;;;;;;4984250;28;20102;-65
2022/01/21 15:32:55;;;;;;;15.15;4.55;;;;;;;;;;4965511;28;20137;-65
2022/01/21 15:35:22;;;;;;;9.10;4.00;;;;;;;;;;4963161;28;20073;-63
2022/01/21 15:37:48;;;;;;;11.65;4.43;;;;;;;;;;4980914;28;20570;-65
2022/01/21 15:40:15;;;;;;;12.27;4.60;;;;;;;;;;4979672;28;20098;-64
2022/01/21 15:42:42;;;;;;;15.85;5.07;;;;;;;;;;4979873;28;20054;-65
2022/01/21 15:45:09;;;;;;;16.45;5.22;;;;;;;;;;4982008;28;20034;-64
2022/01/21 15:47:35;;;;;;;17.13;5.95;;;;;;;;;;4980854;28;20081;-65
2022/01/21 15:50:01;;;;;;;17.85;7.22;;;;;;;;;;4982206;28;20026;-63
2022/01/21 15:52:27;;;;;;;16.55;6.43;;;;;;;;;;4984629;28;20030;-63
2022/01/21 15:54:53;;;;;;;14.45;6.50;;;;;;;;;;4991476;28;20050;-63
2022/01/21 15:57:20;;;;;;;18.48;6.28;;;;;;;;;;4979131;28;20430;-63
2022/01/21 15:59:46;;;;;;;16.70;6.18;;;;;;;;;;4978126;28;20026;-63
2022/01/21 16:02:12;;;;;;;10.90;4.72;;;;;;;;;;4979017;28;20544;-62
2022/01/21 16:04:39;;;;;;;14.15;5.10;;;;;;;;;;4974920;28;20041;-63
2022/01/21 16:07:05;;;;;;;16.15;5.00;;;;;;;;;;4975054;28;20023;-62
2022/01/21 16:09:42;;;;;;;13.20;4.82;;;;;;;;;;4980505;28;20030;-64
2022/01/21 16:12:08;;;;;;;17.05;4.55;;;;;;;;;;4982167;28;20030;-63
2022/01/21 16:14:35;;;;;;;13.40;4.63;;;;;;;;;;4981153;28;20133;-64
2022/01/21 16:17:01;;;;;;;14.70;4.97;;;;;;;;;;4977269;28;20589;-63
2022/01/21 16:19:27;;;;;;;12.18;4.22;;;;;;;;;;4974667;28;20034;-63
2022/01/21 16:21:53;;;;;;;14.55;3.70;;;;;;;;;;4987509;28;20033;-63
2022/01/21 16:24:19;;;;;;;14.88;3.83;;;;;;;;;;4979990;28;20038;-63
2022/01/21 16:26:46;;;;;;;11.43;3.60;;;;;;;;;;4976316;28;20482;-62
2022/01/21 16:29:16;;;;;;;9.82;4.10;;;;;;;;;;4981158;28;20370;-63
2022/01/21 16:31:47;;;;;;;11.38;4.28;;;;;;;;;;4977467;28;20023;-64
2022/01/21 16:34:17;;;;;;;12.63;4.15;;;;;;;;;;4973172;28;20107;-62
2022/01/21 16:36:43;;;;;;;11.80;4.18;;;;;;;;;;4981792;28;20364;-62
2022/01/21 16:39:10;;;;;;;8.25;3.78;;;;;;;;;;4982507;28;20065;-60
2022/01/21 16:41:36;;;;;;;12.02;4.07;;;;;;;;;;4984309;28;20029;-60
2022/01/21 16:44:03;;;;;;;12.85;5.03;;;;;;;;;;4977459;28;20118;-60
2022/01/21 16:46:29;;;;;;;12.00;4.88;;;;;;;;;;4978311;28;20029;-60
2022/01/21 16:48:55;;;;;;;17.23;5.32;;;;;;;;;;4981945;28;20474;-61
2022/01/21 16:51:22;;;;;;;15.63;4.75;;;;;;;;;;4980663;28;20023;-61
2022/01/21 16:53:48;;;;;;;12.90;5.32;;;;;;;;;;4980879;28;20085;-60
2022/01/21 16:56:14;;;;;;;12.52;5.43;;;;;;;;;;4980892;28;20472;-61
2022/01/21 16:58:40;;;;;;;12.77;5.47;;;;;;;;;;4990744;28;20034;-60
2022/01/21 17:01:08;;;;;;;12.50;5.22;;;;;;;;;;4992767;28;20026;-60
2022/01/21 17:15:30;;;;;;;19.08;5.72;;;;;;;;;;4994112;28;20076;-61
2022/01/21 17:18:00;;;;;;;16.65;6.35;;;;;;;;;;4992946;28;20066;-61
2022/01/21 17:20:26;;;;;;;17.30;6.45;;;;;;;;;;4992283;28;20049;-62
2022/01/21 17:23:11;;;;;;;16.45;6.95;;;;;;;;;;4992967;28;20077;-61
2022/01/21 17:25:43;;;;;;;17.85;7.20;;;;;;;;;;4993073;28;20528;-63
2022/01/21 17:28:09;;;;;;;19.52;8.27;;;;;;;;;;4969504;28;20043;-61
2022/01/21 17:30:35;;;;;;;23.00;8.40;;;;;;;;;;4973268;28;20035;-61
2022/01/21 17:33:01;;;;;;;22.40;8.88;;;;;;;;;;4973421;28;20038;-62
2022/01/21 17:35:28;;;;;;;24.20;8.50;;;;;;;;;;4974314;28;20039;-63
2022/01/21 17:37:54;;;;;;;21.60;8.65;;;;;;;;;;4973601;28;20030;-63
2022/01/21 17:40:22;;;;;;;22.08;8.10;;;;;;;;;;4961662;28;20038;-62
2022/01/21 17:42:49;;;;;;;20.73;8.65;;;;;;;;;;4989700;28;20092;-62
2022/01/21 17:45:17;;;;;;;22.17;8.38;;;;;;;;;;4993350;28;20504;-62
2022/01/21 17:47:44;;;;;;;22.42;8.85;;;;;;;;;;4983715;28;20046;-62
2022/01/21 17:50:11;;;;;;;17.20;7.85;;;;;;;;;;4977236;28;20429;-62
2022/01/21 17:52:37;;;;;;;17.20;8.70;;;;;;;;;;4981696;28;20046;-62
2022/01/21 17:55:04;;;;;;;18.02;8.68;;;;;;;;;;4982986;28;20128;-62
2022/01/21 17:57:31;;;;;;;21.88;7.80;;;;;;;;;;4992837;28;20054;-62
2022/01/21 17:59:57;;;;;;;19.95;8.13;;;;;;;;;;4986630;28;20026;-63
2022/01/21 18:02:23;;;;;;;15.95;7.18;;;;;;;;;;4977436;28;20042;-62
2022/01/21 18:04:50;;;;;;;15.85;6.80;;;;;;;;;;4973374;28;20375;-63
2022/01/21 18:07:20;;;;;;;17.25;6.97;;;;;;;;;;4974689;28;20065;-62
2022/01/21 18:09:46;;;;;;;16.48;6.57;;;;;;;;;;4975544;28;20022;-62
2022/01/21 18:12:12;;;;;;;16.02;6.45;;;;;;;;;;4981701;28;20113;-62
2022/01/21 18:14:41;;;;;;;16.75;6.50;;;;;;;;;;4986457;28;20043;-61
2022/01/21 18:17:07;;;;;;;15.35;7.13;;;;;;;;;;4984865;28;20035;-62
2022/01/21 18:19:46;;;;;;;16.83;6.47;;;;;;;;;;4978569;28;20082;-62
2022/01/21 18:22:14;;;;;;;16.10;6.38;;;;;;;;;;4976519;28;20377;-62
2022/01/21 18:24:41;;;;;;;18.13;6.57;;;;;;;;;;4979513;28;20036;-62
2022/01/21 18:27:07;;;;;;;15.50;6.60;;;;;;;;;;4991827;28;20363;-62
2022/01/21 18:29:34;;;;;;;12.52;6.05;;;;;;;;;;4992127;28;20026;-62
2022/01/21 18:32:00;;;;;;;16.45;6.07;;;;;;;;;;4973633;28;20463;-62
2022/01/21 18:34:28;;;;;;;14.57;5.82;;;;;;;;;;4976945;28;20034;-62
2022/01/21 18:36:58;;;;;;;16.08;6.18;;;;;;;;;;4974387;28;20485;-63
2022/01/21 18:39:24;;;;;;;15.45;6.60;;;;;;;;;;4959684;28;20027;-62
2022/01/21 18:41:50;;;;;;;20.13;9.60;;;;;;;;;;4981009;28;20027;-62
2022/01/21 18:44:17;;;;;;;15.23;6.07;;;;;;;;;;4991872;28;20034;-62
2022/01/21 18:46:47;;;;;;;16.75;6.05;;;;;;;;;;4991142;28;20057;-62
2022/01/21 18:49:15;;;;;;;14.95;5.47;;;;;;;;;;4976767;28;20054;-62
2022/01/21 18:51:44;;;;;;;16.70;6.03;;;;;;;;;;4982585;28;20112;-62
2022/01/21 18:54:10;;;;;;;13.55;6.10;;;;;;;;;;4987601;28;20371;-62
2022/01/21 18:56:36;;;;;;;11.80;5.53;;;;;;;;;;4979594;28;20101;-61
2022/01/21 18:59:02;;;;;;;12.23;4.97;;;;;;;;;;4979236;28;20031;-62
2022/01/21 19:01:31;;;;;;;12.18;5.50;;;;;;;;;;4979997;28;20030;-62
2022/01/21 19:03:58;;;;;;;11.60;5.53;;;;;;;;;;4982338;28;20018;-61
2022/01/21 19:06:27;;;;;;;13.50;5.90;;;;;;;;;;4978039;28;20015;-63
2022/01/21 19:08:56;;;;;;;14.10;5.18;;;;;;;;;;4960919;28;20022;-61
2022/01/21 19:11:23;;;;;;;17.00;7.15;;;;;;;;;;4981299;28;20018;-61
2022/01/21 19:13:49;;;;;;;17.60;6.22;;;;;;;;;;4963357;28;20074;-62
2022/01/21 19:16:15;;;;;;;15.25;5.90;;;;;;;;;;4955632;28;20367;-61
2022/01/21 19:18:41;;;;;;;14.48;6.25;;;;;;;;;;4991293;28;20036;-62
2022/01/21 19:21:11;;;;;;;17.15;6.80;;;;;;;;;;4953703;28;20130;-62
2022/01/21 19:23:38;;;;;;;17.45;6.57;;;;;;;;;;4981922;28;20026;-61
2022/01/21 19:26:07;;;;;;;17.70;7.07;;;;;;;;;;4989748;28;20076;-62
2022/01/21 19:28:39;;;;;;;15.77;6.78;;;;;;;;;;4991671;28;20038;-62
2022/01/21 19:31:06;;;;;;;;;;;;;;;;;;4991420;28;20030;-61
2022/01/21 19:33:32;;;;;;;18.90;7.85;;;;;;;;;;4990944;28;19968;-62
2022/01/21 19:36:00;;;;;;;19.55;8.07;;;;;;;;;;4979907;28;20077;-64
2022/01/21 19:38:29;;;;;;;15.70;7.00;;;;;;;;;;4975109;28;20639;-62
2022/01/21 19:40:56;;;;;;;17.65;7.22;;;;;;;;;;4976608;28;20062;-62
2022/01/21 19:43:24;;;;;;;18.83;7.78;;;;;;;;;;4980722;28;20018;-60
2022/01/21 19:45:59;;;;;;;17.83;7.25;;;;;;;;;;4981142;28;20034;-61
2022/01/21 19:48:36;;;;;;;14.73;6.93;;;;;;;;;;4978887;28;20022;-61
2022/01/21 19:51:02;;;;;;;18.33;6.95;;;;;;;;;;4980879;28;20030;-61
2022/01/21 19:53:28;;;;;;;17.45;6.70;;;;;;;;;;4980138;28;20066;-61
2022/01/21 19:55:54;;;;;;;19.60;7.45;;;;;;;;;;4980796;28;20354;-62
2022/01/21 19:58:23;;;;;;;19.10;6.72;;;;;;;;;;4962752;28;20050;-61
2022/01/21 20:14:02;;;;;;;13.75;6.20;;;;;;;;;;4984496;28;20451;-61
2022/01/21 20:16:32;;;;;;;18.35;6.00;;;;;;;;;;4981729;28;20117;-61
2022/01/21 20:19:00;;;;;;;18.80;6.53;;;;;;;;;;4961113;28;20438;-60
2022/01/21 20:21:27;;;;;;;17.27;6.43;;;;;;;;;;4978904;28;20035;-63
2022/01/21 20:23:56;;;;;;;17.90;6.72;;;;;;;;;;4985526;28;20030;-62
2022/01/21 20:26:24;;;;;;;15.10;6.40;;;;;;;;;;4988732;28;20026;-63
2022/01/21 20:28:50;;;;;;;17.23;6.15;;;;;;;;;;4969582;28;20041;-63
2022/01/21 20:31:16;;;;;;;15.00;6.03;;;;;;;;;;4981020;28;20082;-63
2022/01/21 20:33:45;;;;;;;14.18;5.65;;;;;;;;;;4974780;28;20042;-63
2022/01/21 20:36:18;;;;;;;12.07;5.30;;;;;;;;;;4984350;28;20025;-61
2022/01/21 20:38:51;;;;;;;15.05;5.25;;;;;;;;;;4983120;28;20022;-62
2022/01/21 20:43:44;;;;;;;12.55;5.15;;;;;;;;;;4983086;28;20042;-62
2022/01/21 20:46:10;;;;;;;13.68;6.35;;;;;;;;;;4983221;28;20041;-62
2022/01/21 20:48:36;;;;;;;16.67;5.43;;;;;;;;;;4981889;28;20493;-64
2022/01/21 20:51:04;;;;;;;14.43;5.13;;;;;;;;;;4966365;28;20022;-63
2022/01/21 20:53:30;;;;;;;14.68;5.03;;;;;;;;;;4964874;28;20045;-64
2022/01/21 20:55:57;;;;;;;13.43;5.57;;;;;;;;;;4983592;28;20541;-65
2022/01/21 20:58:23;;;;;;;14.98;5.57;;;;;;;;;;4982628;28;20634;-63
2022/01/21 21:00:50;;;;;;;17.20;6.65;;;;;;;;;;4967423;28;20061;-63
2022/01/21 21:03:16;;;;;;;13.48;5.28;;;;;;;;;;4984538;28;20070;-62
2022/01/21 21:05:42;;;;;;;15.50;5.00;;;;;;;;;;4957438;28;20071;-64
2022/01/21 21:08:09;;;;;;;13.85;5.57;;;;;;;;;;4963129;28;20093;-65
2022/01/21 21:10:37;;;;;;;14.90;5.95;;;;;;;;;;4993816;28;20022;-64
2022/01/21 21:13:04;;;;;;;12.50;4.72;;;;;;;;;;4978544;28;20030;-63
2022/01/21 21:15:33;;;;;;;9.45;4.43;;;;;;;;;;4978926;28;20046;-63
2022/01/21 21:18:15;;;;;;;10.73;5.00;;;;;;;;;;4980214;28;20026;-64
2022/01/21 21:28:59;;;;;;;15.07;6.30;;;;;;;;;;4982774;28;20472;-64
2022/01/21 22:49:59;;;;;;;22.13;9.05;;;;;;;;;;4974584;28;20058;-64
